Time;durP1;ratioP1;P1;durP2;ratioP2;P2;SDS_P1;SDS_P2;PMS_P1;PMS_P2;Temp;Humidity;BMP_temperature;BMP_pressure;BME280_temperature;BME280_humidity;BME280_pressure;Samples;Min_cycle;Max_cycle;Signal;HPM_P1;HPM_P2
2024/04/17 00:01:43;;;;;;;3.75;0.90;;;;;;;12.45;80.01;98437.22;5416569;26;20000;-45
2024/04/17 00:04:09;;;;;;;6.10;1.10;;;;;;;12.32;80.26;98440.00;5387190;26;20068;-45
2024/04/17 00:06:35;;;;;;;12.50;6.45;;;;;;;12.28;81.29;98436.97;5418231;26;20014;-45
2024/04/17 00:09:01;;;;;;;4.47;2.35;;;;;;;12.27;81.15;98437.19;5416510;26;20010;-46
2024/04/17 00:11:26;;;;;;;6.40;1.95;;;;;;;12.26;81.41;98431.13;5418218;26;20010;-45
2024/04/17 00:13:52;;;;;;;2.45;1.95;;;;;;;12.20;80.54;98432.00;5416478;26;20018;-45
2024/04/17 00:16:17;;;;;;;5.47;3.25;;;;;;;12.02;80.07;98430.13;5418267;26;20000;-45
2024/04/17 00:18:43;;;;;;;3.83;2.33;;;;;;;11.93;79.84;98431.41;5416466;26;20011;-45
2024/04/17 00:21:09;;;;;;;4.32;1.20;;;;;;;11.82;78.58;98437.38;5416530;26;20043;-45
2024/04/17 00:23:35;;;;;;;2.85;1.15;;;;;;;11.73;78.80;98432.38;5416375;26;20009;-45
2024/04/17 00:26:00;;;;;;;2.33;0.80;;;;;;;11.75;79.45;98430.34;5416193;26;20018;-45
2024/04/17 00:28:26;;;;;;;6.60;5.05;;;;;;;11.74;78.97;98428.72;5418078;26;20036;-45
2024/04/17 00:30:52;;;;;;;10.50;6.53;;;;;;;11.77;79.06;98419.59;5417905;26;20000;-46
2024/04/17 00:33:17;;;;;;;3.60;2.22;;;;;;;11.68;78.52;98416.41;5417513;26;20334;-46
2024/04/17 00:35:43;;;;;;;4.30;1.33;;;;;;;11.62;78.17;98411.22;5415864;26;20441;-45
2024/04/17 00:38:09;;;;;;;5.28;1.42;;;;;;;11.60;77.89;98412.22;5416652;26;20478;-45
2024/04/17 00:40:35;;;;;;;1.80;1.35;;;;;;;11.63;77.25;98415.44;5416449;26;20040;-46
2024/04/17 00:43:02;;;;;;;2.35;1.10;;;;;;;11.62;76.51;98409.41;5418174;26;20473;-45
2024/04/17 00:45:32;;;;;;;8.43;4.55;;;;;;;11.58;75.39;98413.47;5386849;26;20014;-45
2024/04/17 00:47:58;;;;;;;3.15;2.20;;;;;;;11.62;75.47;98414.66;5418354;26;20505;-45
2024/04/17 00:50:25;;;;;;;7.78;1.50;;;;;;;11.63;74.29;98415.44;5357884;26;20511;-45
2024/04/17 00:52:51;;;;;;;2.72;1.10;;;;;;;11.69;74.00;98410.16;5418061;26;19996;-45
2024/04/17 00:55:17;;;;;;;2.47;1.05;;;;;;;11.80;74.49;98409.44;5416372;26;20015;-46
2024/04/17 00:57:44;;;;;;;3.47;1.83;;;;;;;11.95;74.73;98411.78;5416467;26;20387;-46
2024/04/17 01:00:10;;;;;;;3.15;1.15;;;;;;;12.01;75.03;98407.47;5417967;26;20072;-45
2024/04/17 01:02:36;;;;;;;12.85;10.27;;;;;;;12.02;77.19;98403.84;5417963;26;20015;-46
2024/04/17 01:05:01;;;;;;;6.15;2.47;;;;;;;12.05;77.60;98406.03;5386486;26;20081;-45
2024/04/17 01:07:27;;;;;;;8.15;4.32;;;;;;;12.18;78.57;98402.47;5417835;26;20004;-45
2024/04/17 01:09:54;;;;;;;6.65;1.70;;;;;;;12.24;79.19;98396.34;5386417;26;20027;-45
2024/04/17 01:12:20;;;;;;;4.90;2.63;;;;;;;12.21;79.40;98388.88;5417821;26;20027;-45
2024/04/17 01:14:46;;;;;;;5.15;2.30;;;;;;;12.15;80.01;98395.00;5417688;26;19999;-45
2024/04/17 01:17:12;;;;;;;10.52;3.38;;;;;;;12.15;79.78;98392.38;5416042;26;20003;-45
2024/04/17 01:19:39;;;;;;;40.78;36.53;;;;;;;12.13;78.79;98383.91;5415971;26;20044;-45
2024/04/17 01:22:05;;;;;;;7.03;3.95;;;;;;;12.28;77.42;98397.50;5415847;26;20000;-45
2024/04/17 01:24:30;;;;;;;22.95;20.50;;;;;;;12.29;74.19;98393.84;5415504;26;20014;-46
2024/04/17 01:26:56;;;;;;;9.23;2.95;;;;;;;12.26;73.22;98404.03;5415437;26;20000;-45
2024/04/17 01:29:22;;;;;;;4.15;1.15;;;;;;;12.23;73.58;98402.63;5415431;26;19999;-45
2024/04/17 01:31:47;;;;;;;6.45;1.50;;;;;;;12.15;72.11;98398.47;5415336;26;19999;-45
2024/04/17 01:34:13;;;;;;;4.43;1.83;;;;;;;12.16;72.58;98400.06;5417247;26;20034;-45
2024/04/17 01:36:39;;;;;;;2.30;1.23;;;;;;;12.28;72.87;98407.25;5415231;26;20017;-45
2024/04/17 01:39:04;;;;;;;4.55;2.03;;;;;;;12.30;72.59;98402.56;5417207;26;20016;-45
2024/04/17 01:41:30;;;;;;;3.38;1.52;;;;;;;12.31;72.71;98394.44;5415226;26;20011;-45
2024/04/17 01:43:56;;;;;;;4.03;1.90;;;;;;;12.35;72.59;98392.16;5417028;26;20349;-46
2024/04/17 01:46:22;;;;;;;7.70;3.40;;;;;;;12.44;72.90;98396.13;5415496;26;19999;-45
2024/04/17 01:48:48;;;;;;;4.82;1.33;;;;;;;12.56;72.30;98394.38;5416865;26;20374;-45
2024/04/17 01:51:13;;;;;;;2.45;1.10;;;;;;;12.77;72.12;98401.00;5416889;26;20003;-45
2024/04/17 01:53:39;;;;;;;11.50;10.38;;;;;;;12.78;70.89;98393.94;5416883;26;20008;-45
2024/04/17 01:56:05;;;;;;;7.60;6.88;;;;;;;12.65;70.22;98397.50;5416994;26;20014;-45
2024/04/17 01:58:31;;;;;;;31.90;28.52;;;;;;;12.53;70.36;98399.28;5416824;26;19999;-45
2024/04/17 02:00:56;;;;;;;9.80;7.93;;;;;;;12.54;70.81;98396.44;5414900;26;20003;-45
2024/04/17 02:03:22;;;;;;;8.85;6.47;;;;;;;12.56;70.51;98394.38;5414916;26;20076;-46
2024/04/17 02:05:48;;;;;;;10.82;7.18;;;;;;;12.61;70.29;98390.28;5414905;26;20004;-45
2024/04/17 02:08:14;;;;;;;56.42;50.20;;;;;;;12.67;69.59;98397.28;5416768;26;20063;-45
2024/04/17 02:10:39;;;;;;;17.10;8.50;;;;;;;12.58;69.41;98392.31;5414848;26;20004;-45
2024/04/17 02:13:05;;;;;;;4.57;1.42;;;;;;;12.48;68.72;98394.66;5416601;26;20342;-45
2024/04/17 02:15:34;;;;;;;7.32;1.50;;;;;;;12.36;67.97;98391.16;5414759;26;19999;-45
2024/04/17 02:17:59;;;;;;;4.43;1.35;;;;;;;12.34;68.58;98393.22;5385204;26;20000;-45
2024/04/17 02:20:25;;;;;;;9.52;2.03;;;;;;;12.33;67.67;98388.97;5414635;26;20004;-45
2024/04/17 02:22:51;;;;;;;7.28;3.05;;;;;;;12.23;67.00;98394.72;5416344;26;19999;-45
2024/04/17 02:25:16;;;;;;;7.18;1.70;;;;;;;12.18;67.35;98387.50;5414563;26;20077;-45
2024/04/17 02:27:42;;;;;;;6.18;3.22;;;;;;;12.18;67.10;98392.75;5414534;26;20008;-46
2024/04/17 02:30:08;;;;;;;5.40;3.90;;;;;;;12.23;66.71;98394.72;5416271;26;20015;-45
2024/04/17 02:32:34;;;;;;;7.50;1.67;;;;;;;12.33;66.72;98383.69;5414297;26;20000;-45
2024/04/17 02:34:59;;;;;;;4.50;1.60;;;;;;;12.23;65.64;98401.81;5414300;26;20448;-46
2024/04/17 02:37:25;;;;;;;4.70;2.38;;;;;;;11.90;65.51;98401.09;5414934;26;20000;-45
2024/04/17 02:39:50;;;;;;;3.78;1.30;;;;;;;11.78;66.83;98400.16;5414640;26;20358;-45
2024/04/17 02:42:16;;;;;;;9.27;1.50;;;;;;;11.71;66.78;98391.53;5414617;26;20072;-45
2024/04/17 02:44:42;;;;;;;2.58;1.10;;;;;;;11.96;67.35;98396.81;5416224;26;20515;-45
2024/04/17 02:47:07;;;;;;;3.78;1.23;;;;;;;12.30;66.97;98399.94;5416324;26;20396;-45
2024/04/17 02:49:33;;;;;;;5.63;2.83;;;;;;;12.54;65.40;98400.91;5414486;26;20007;-45
2024/04/17 02:51:59;;;;;;;3.45;0.90;;;;;;;12.73;64.74;98396.41;5416061;26;20003;-45
2024/04/17 02:54:24;;;;;;;5.53;1.00;;;;;;;12.84;64.64;98389.59;5414608;26;20007;-45
2024/04/17 02:56:50;;;;;;;5.93;2.05;;;;;;;12.91;64.05;98393.75;5416631;26;20426;-46
2024/04/17 02:59:16;;;;;;;6.35;1.65;;;;;;;12.94;63.63;98395.16;5388212;26;20434;-45
2024/04/17 03:01:41;;;;;;;4.40;1.17;;;;;;;12.98;63.11;98402.38;5417695;26;20014;-45
2024/04/17 03:04:07;;;;;;;9.68;2.28;;;;;;;12.98;62.79;98389.22;5417751;26;20004;-45
2024/04/17 03:06:33;;;;;;;6.00;2.90;;;;;;;12.96;62.55;98395.72;5417694;26;20004;-45
2024/04/17 03:08:58;;;;;;;8.23;1.98;;;;;;;12.96;63.01;98390.47;5417920;26;20004;-45
2024/04/17 03:11:24;;;;;;;3.22;1.45;;;;;;;12.96;62.89;98396.53;5419334;26;19999;-45
2024/04/17 03:13:50;;;;;;;8.35;2.40;;;;;;;12.98;62.92;98398.94;5419506;26;20000;-45
2024/04/17 03:16:16;;;;;;;4.35;1.23;;;;;;;13.01;62.25;98395.06;5417638;26;20423;-45
2024/04/17 03:18:42;;;;;;;8.45;1.65;;;;;;;13.01;62.17;98397.69;5417498;26;20015;-45
2024/04/17 03:21:07;;;;;;;5.55;1.70;;;;;;;12.98;62.26;98396.31;5387978;26;20449;-45
2024/04/17 03:23:33;;;;;;;5.75;1.52;;;;;;;12.97;62.26;98405.22;5419454;26;20016;-45
2024/04/17 03:26:01;;;;;;;6.10;1.15;;;;;;;12.96;62.33;98401.78;5418919;26;20352;-45
2024/04/17 03:28:27;;;;;;;3.53;1.42;;;;;;;13.00;62.10;98389.00;5387524;26;20003;-45
2024/04/17 03:30:53;;;;;;;7.82;2.33;;;;;;;13.07;61.64;98397.59;5419015;26;20003;-45
2024/04/17 03:33:19;;;;;;;5.07;1.20;;;;;;;13.09;61.17;98398.16;5417151;26;20023;-45
2024/04/17 03:35:58;;;;;;;7.18;1.80;;;;;;;13.12;61.22;98407.44;5418517;26;20014;-45
2024/04/17 03:38:25;;;;;;;4.20;1.48;;;;;;;13.14;60.51;98400.16;5417056;26;20011;-46
2024/04/17 03:40:51;;;;;;;4.43;1.20;;;;;;;13.14;60.83;98397.53;5419052;26;20000;-45
2024/04/17 03:43:17;;;;;;;8.23;1.35;;;;;;;13.17;60.87;98402.31;5416908;26;20003;-45
2024/04/17 03:45:43;;;;;;;4.18;1.45;;;;;;;13.18;60.54;98406.59;5416774;26;20428;-45
2024/04/17 03:48:08;;;;;;;10.18;2.47;;;;;;;13.21;59.61;98413.22;5418652;26;20003;-45
2024/04/17 03:50:34;;;;;;;7.40;2.50;;;;;;;13.18;59.81;98406.59;5416738;26;20334;-45
2024/04/17 03:53:00;;;;;;;5.43;1.58;;;;;;;13.12;59.65;98405.66;5418671;26;20011;-45
2024/04/17 03:55:25;;;;;;;6.97;1.55;;;;;;;13.09;59.75;98406.06;5416813;26;20003;-45
2024/04/17 03:57:51;;;;;;;6.13;1.20;;;;;;;13.10;59.78;98412.13;5387173;26;20000;-45
2024/04/17 04:00:17;;;;;;;4.57;1.58;;;;;;;13.12;59.84;98418.81;5416750;26;20015;-45
2024/04/17 04:02:43;;;;;;;5.93;4.93;;;;;;;13.12;59.63;98413.53;5418388;26;20442;-45
2024/04/17 04:05:09;;;;;;;10.45;2.17;;;;;;;13.16;59.53;98416.53;5418345;26;20018;-45
2024/04/17 04:07:35;;;;;;;13.10;7.00;;;;;;;13.16;59.36;98414.72;5418354;26;20461;-46
2024/04/17 04:10:01;;;;;;;13.27;6.10;;;;;;;13.17;59.07;98415.50;5417317;26;20003;-46
2024/04/17 04:12:27;;;;;;;7.78;5.93;;;;;;;13.13;58.93;98420.41;5386867;26;20046;-45
2024/04/17 04:14:53;;;;;;;8.63;2.78;;;;;;;13.11;58.95;98419.03;5418231;26;20003;-45
2024/04/17 04:17:18;;;;;;;22.17;18.08;;;;;;;13.12;58.48;98423.25;5418131;26;20003;-45
2024/04/17 04:19:44;;;;;;;11.40;7.95;;;;;;;13.02;58.35;98423.81;5418187;26;20004;-45
2024/04/17 04:22:10;;;;;;;16.33;8.93;;;;;;;12.96;58.55;98422.88;5418192;26;20014;-45
2024/04/17 04:24:35;;;;;;;8.50;4.80;;;;;;;12.99;58.95;98422.41;5416315;26;19999;-45
2024/04/17 04:27:01;;;;;;;9.98;5.10;;;;;;;13.04;58.41;98428.84;5416249;26;19999;-45
2024/04/17 04:29:27;;;;;;;7.45;4.20;;;;;;;13.02;57.68;98415.91;5418115;26;20047;-46
2024/04/17 04:31:53;;;;;;;10.77;4.40;;;;;;;12.71;57.48;98427.41;5418105;26;20035;-46
2024/04/17 04:34:18;;;;;;;13.50;4.45;;;;;;;12.55;58.85;98426.19;5418103;26;20037;-45
2024/04/17 04:36:44;;;;;;;16.45;8.13;;;;;;;12.43;58.72;98426.09;5417725;26;20010;-45
2024/04/17 04:39:09;;;;;;;18.60;11.05;;;;;;;12.14;59.50;98431.03;5417879;26;20000;-46
2024/04/17 04:41:35;;;;;;;10.38;3.45;;;;;;;11.95;59.58;98430.22;5416036;26;20560;-45
2024/04/17 04:44:01;;;;;;;10.25;4.93;;;;;;;11.62;60.42;98438.31;5417786;26;20018;-45
2024/04/17 04:46:26;;;;;;;14.93;5.07;;;;;;;11.50;61.43;98432.13;5417811;26;20004;-45
2024/04/17 04:48:52;;;;;;;13.95;8.65;;;;;;;11.72;62.19;98432.56;5415988;26;20465;-46
2024/04/17 04:51:18;;;;;;;27.77;13.98;;;;;;;11.94;61.96;98431.22;5415947;26;19995;-45
2024/04/17 04:53:43;;;;;;;23.00;9.93;;;;;;;12.18;61.70;98428.78;5386352;26;20000;-46
2024/04/17 04:56:09;;;;;;;18.75;8.07;;;;;;;12.39;61.34;98431.00;5415881;26;20030;-45
2024/04/17 04:58:35;;;;;;;10.95;4.63;;;;;;;12.57;60.88;98438.09;5386450;26;19999;-45
2024/04/17 05:01:00;;;;;;;25.08;14.68;;;;;;;12.58;60.23;98444.19;5417605;26;20004;-46
2024/04/17 05:03:26;;;;;;;19.80;10.75;;;;;;;12.67;60.13;98437.59;5415761;26;20333;-46
2024/04/17 05:05:52;;;;;;;18.33;4.95;;;;;;;12.81;59.49;98437.44;5415734;26;20014;-46
2024/04/17 05:08:18;;;;;;;18.20;6.88;;;;;;;12.94;59.10;98447.81;5417495;26;20004;-46
2024/04/17 05:10:43;;;;;;;9.07;1.98;;;;;;;12.85;58.66;98442.03;5386213;26;20010;-46
2024/04/17 05:13:09;;;;;;;11.85;2.65;;;;;;;12.65;58.78;98447.53;5417674;26;20003;-45
2024/04/17 05:15:35;;;;;;;9.93;1.83;;;;;;;12.59;59.14;98451.84;5415594;26;20050;-45
2024/04/17 05:18:01;;;;;;;15.05;3.15;;;;;;;12.49;59.06;98453.38;5417326;26;20000;-45
2024/04/17 05:20:26;;;;;;;15.65;4.50;;;;;;;12.38;59.45;98460.97;5417234;26;20077;-46
2024/04/17 05:22:52;;;;;;;14.43;2.83;;;;;;;12.37;59.72;98455.91;5417296;26;20004;-46
2024/04/17 05:25:20;;;;;;;8.73;2.80;;;;;;;12.29;59.29;98451.75;5417251;26;20405;-45
2024/04/17 05:27:46;;;;;;;13.93;2.78;;;;;;;12.24;59.68;98453.44;5417164;26;20007;-45
2024/04/17 05:30:12;;;;;;;17.25;2.38;;;;;;;12.17;59.58;98456.09;5415622;26;20458;-46
2024/04/17 05:32:38;;;;;;;7.38;2.00;;;;;;;12.10;60.09;98461.44;5417029;26;20079;-46
2024/04/17 05:35:04;;;;;;;7.63;1.50;;;;;;;12.08;60.28;98460.03;5385719;26;20011;-46
2024/04/17 05:37:31;;;;;;;13.52;4.60;;;;;;;12.03;60.13;98458.03;5417444;26;19999;-45
2024/04/17 05:39:56;;;;;;;6.72;1.98;;;;;;;12.07;60.39;98464.47;5417574;26;20326;-46
2024/04/17 05:42:23;;;;;;;4.72;1.38;;;;;;;12.25;60.68;98462.91;5386222;26;20010;-46
2024/04/17 05:44:49;;;;;;;11.13;1.48;;;;;;;12.37;60.16;98467.28;5417566;26;20011;-45
2024/04/17 05:47:14;;;;;;;22.20;14.95;;;;;;;12.48;60.20;98472.84;5417404;26;20010;-46
2024/04/17 05:49:40;;;;;;;18.83;11.50;;;;;;;12.72;59.55;98473.81;5417471;26;19999;-46
2024/04/17 05:52:09;;;;;;;28.65;12.82;;;;;;;12.95;58.93;98470.50;5417221;26;20028;-46
2024/04/17 05:54:35;;;;;;;18.58;12.55;;;;;;;12.94;58.47;98472.34;5417218;26;20004;-45
2024/04/17 05:57:01;;;;;;;43.35;39.20;;;;;;;13.04;58.19;98476.25;5417147;26;20039;-46
2024/04/17 05:59:27;;;;;;;18.58;15.35;;;;;;;13.13;58.00;98472.31;5415305;26;20000;-45
2024/04/17 06:01:52;;;;;;;29.27;24.35;;;;;;;13.27;57.76;98476.38;5415366;26;20345;-46
2024/04/17 06:04:18;;;;;;;16.80;10.75;;;;;;;13.25;57.17;98473.16;5417086;26;20009;-45
2024/04/17 06:06:44;;;;;;;47.05;38.10;;;;;;;13.07;57.46;98484.53;5415194;26;20021;-46
2024/04/17 06:09:10;;;;;;;18.67;16.58;;;;;;;13.11;57.98;98487.53;5417049;26;19999;-46
2024/04/17 06:11:36;;;;;;;37.33;33.53;;;;;;;13.18;58.45;98488.28;5414997;26;20082;-46
2024/04/17 06:14:01;;;;;;;15.73;14.10;;;;;;;13.18;58.45;98481.16;5416925;26;20004;-46
2024/04/17 06:16:27;;;;;;;17.65;8.38;;;;;;;13.00;58.16;98491.72;5415046;26;20003;-45
2024/04/17 06:18:53;;;;;;;24.90;16.35;;;;;;;13.04;58.52;98489.44;5416812;26;20073;-45
2024/04/17 06:21:18;;;;;;;16.15;7.03;;;;;;;13.24;57.98;98491.81;5416535;26;20393;-45
2024/04/17 06:23:44;;;;;;;20.23;8.27;;;;;;;13.43;57.52;98497.91;5416410;26;20334;-45
2024/04/17 06:26:10;;;;;;;34.83;12.35;;;;;;;13.55;56.76;98496.91;5385376;26;20003;-46
2024/04/17 06:28:35;;;;;;;18.60;10.70;;;;;;;13.65;56.41;98496.38;5385057;26;20025;-46
2024/04/17 06:31:01;;;;;;;21.15;8.27;;;;;;;13.56;55.97;98497.72;5416200;26;20073;-46
2024/04/17 06:33:27;;;;;;;14.80;7.43;;;;;;;13.46;56.00;98495.66;5415575;26;20003;-46
2024/04/17 06:35:52;;;;;;;10.52;3.65;;;;;;;13.42;56.02;98507.66;5414072;26;19999;-46
2024/04/17 06:38:18;;;;;;;16.98;6.18;;;;;;;13.35;56.15;98513.00;5416106;26;20442;-46
2024/04/17 06:40:44;;;;;;;13.20;3.95;;;;;;;13.33;56.22;98512.41;5416076;26;20081;-46
2024/04/17 06:43:09;;;;;;;14.02;3.05;;;;;;;13.36;56.77;98513.78;5414354;26;20043;-46
2024/04/17 06:45:36;;;;;;;6.13;2.20;;;;;;;13.37;56.79;98518.84;5415897;26;20088;-46
2024/04/17 06:48:03;;;;;;;19.88;13.38;;;;;;;13.33;57.36;98520.31;5416107;26;20011;-46
2024/04/17 06:50:28;;;;;;;17.08;4.30;;;;;;;13.23;57.38;98506.84;5415925;26;20010;-46
2024/04/17 06:52:54;;;;;;;18.38;5.78;;;;;;;13.03;57.87;98530.00;5415817;26;20000;-46
2024/04/17 06:55:20;;;;;;;49.85;37.05;;;;;;;12.90;63.47;98528.31;5414026;26;20548;-45
2024/04/17 06:57:45;;;;;;;36.72;19.58;;;;;;;12.73;65.60;98530.69;5415918;26;20012;-45
2024/04/17 07:00:12;;;;;;;19.40;11.75;;;;;;;12.49;67.81;98530.50;5413932;26;20016;-46
2024/04/17 07:02:37;;;;;;;19.25;7.95;;;;;;;12.35;70.12;98531.66;5415803;26;20014;-46
2024/04/17 07:05:03;;;;;;;11.25;3.72;;;;;;;12.38;70.98;98528.59;5413821;26;20004;-46
2024/04/17 07:07:29;;;;;;;17.50;3.92;;;;;;;12.57;72.73;98521.53;5415772;26;20014;-45
2024/04/17 07:09:55;;;;;;;19.25;7.13;;;;;;;12.99;72.97;98519.88;5384398;26;20058;-45
2024/04/17 07:12:20;;;;;;;6.63;4.32;;;;;;;13.34;71.50;98521.94;5415471;26;20068;-46
2024/04/17 07:14:46;;;;;;;10.82;6.45;;;;;;;13.42;70.51;98526.13;5415483;26;20014;-46
2024/04/17 07:17:12;;;;;;;24.48;17.00;;;;;;;13.62;68.02;98525.03;5415420;26;20084;-45
2024/04/17 07:19:37;;;;;;;33.10;29.05;;;;;;;13.86;66.70;98524.06;5415432;26;20004;-46
2024/04/17 07:22:03;;;;;;;15.15;9.00;;;;;;;14.16;66.32;98526.66;5415410;26;20004;-46
2024/04/17 07:24:29;;;;;;;19.42;16.40;;;;;;;14.30;66.15;98524.59;5415259;26;20559;-45
2024/04/17 07:26:55;;;;;;;9.75;5.88;;;;;;;14.43;63.86;98522.78;5413556;26;20019;-45
2024/04/17 07:29:21;;;;;;;27.60;14.85;;;;;;;14.38;61.84;98521.63;5413473;26;20003;-45
2024/04/17 07:31:48;;;;;;;16.77;5.05;;;;;;;14.45;61.54;98529.47;5383810;26;20430;-46
2024/04/17 07:34:14;;;;;;;24.27;5.22;;;;;;;14.52;60.14;98527.50;5415155;26;20007;-46
2024/04/17 07:36:40;;;;;;;36.83;10.07;;;;;;;14.37;59.25;98530.59;5383469;26;20003;-45
2024/04/17 07:39:06;;;;;;;32.55;14.15;;;;;;;14.17;59.07;98519.56;5415307;26;20015;-46
2024/04/17 07:41:32;;;;;;;32.65;9.35;;;;;;;14.28;57.89;98518.75;5415010;26;20510;-45
2024/04/17 07:43:57;;;;;;;26.92;9.38;;;;;;;14.52;56.74;98522.22;5414071;26;20011;-45
2024/04/17 07:46:23;;;;;;;14.30;3.13;;;;;;;14.64;55.45;98514.31;5418715;26;19999;-46
2024/04/17 07:48:50;;;;;;;23.40;11.40;;;;;;;14.51;54.29;98512.69;5418702;26;20010;-45
2024/04/17 07:51:16;;;;;;;18.38;7.70;;;;;;;14.29;54.87;98527.50;5418482;26;19999;-46
2024/04/17 07:53:42;;;;;;;22.33;6.28;;;;;;;14.28;54.73;98525.88;5418587;26;20003;-45
2024/04/17 07:56:08;;;;;;;19.13;4.13;;;;;;;14.23;55.16;98516.00;5416761;26;20004;-46
2024/04/17 07:58:34;;;;;;;13.65;8.32;;;;;;;14.11;55.20;98518.63;5416775;26;19999;-46
2024/04/17 08:01:00;;;;;;;9.55;2.65;;;;;;;14.07;55.81;98522.75;5416680;26;20011;-46
2024/04/17 08:03:25;;;;;;;25.83;4.20;;;;;;;14.03;55.72;98520.81;5416678;26;20015;-45
2024/04/17 08:05:51;;;;;;;18.13;5.45;;;;;;;14.08;56.73;98519.06;5416787;26;20387;-46
2024/04/17 08:08:18;;;;;;;15.38;4.10;;;;;;;14.41;56.33;98514.28;5418356;26;20000;-46
2024/04/17 08:10:44;;;;;;;17.17;8.00;;;;;;;15.33;58.08;98513.59;5418249;26;20456;-46
2024/04/17 08:13:14;;;;;;;13.68;2.63;;;;;;;15.80;55.63;98510.81;5386904;26;20003;-46
2024/04/17 08:15:50;;;;;;;16.85;6.35;;;;;;;16.36;52.31;98508.25;5416742;26;19999;-46
2024/04/17 08:18:15;;;;;;;6.85;2.00;;;;;;;16.89;48.37;98503.44;5416480;26;20039;-45
2024/04/17 08:20:41;;;;;;;14.15;3.63;;;;;;;16.86;47.46;98502.09;5416350;26;20011;-46
2024/04/17 08:23:07;;;;;;;26.48;19.98;;;;;;;16.61;47.10;98499.06;5416437;26;19999;-46
2024/04/17 08:25:33;;;;;;;10.15;2.90;;;;;;;16.55;47.27;98504.28;5416326;26;20420;-46
2024/04/17 08:27:59;;;;;;;23.55;2.45;;;;;;;16.87;49.12;98503.69;5416344;26;20014;-46
2024/04/17 08:30:25;;;;;;;8.35;2.22;;;;;;;18.48;46.86;98497.81;5417930;26;20013;-46
2024/04/17 08:32:50;;;;;;;16.17;4.13;;;;;;;19.57;42.28;98502.53;5416210;26;20407;-43
2024/04/17 08:35:16;;;;;;;9.55;1.90;;;;;;;19.75;38.75;98502.03;5415865;26;20003;-43
2024/04/17 08:37:43;;;;;;;13.82;2.80;;;;;;;19.04;39.71;98505.31;5416628;26;19995;-43
2024/04/17 08:40:11;;;;;;;27.92;3.17;;;;;;;18.02;41.51;98507.31;5418162;26;20359;-43
2024/04/17 08:42:41;;;;;;;14.23;3.17;;;;;;;17.33;42.84;98512.19;5418251;26;20071;-43
2024/04/17 08:45:09;;;;;;;14.43;2.95;;;;;;;17.10;43.97;98512.44;5418178;26;20012;-45
2024/04/17 08:47:37;;;;;;;18.75;3.72;;;;;;;16.97;43.80;98509.09;5418120;26;20457;-46
2024/04/17 08:50:04;;;;;;;15.48;6.40;;;;;;;16.97;43.49;98510.97;5387021;26;20011;-46
2024/04/17 08:52:32;;;;;;;16.60;11.50;;;;;;;16.96;43.41;98512.81;5416189;26;20457;-46
2024/04/17 08:54:58;;;;;;;14.35;5.50;;;;;;;16.67;43.53;98521.94;5417471;26;20319;-46
2024/04/17 08:57:25;;;;;;;40.83;26.70;;;;;;;16.28;47.64;98520.06;5416207;26;20072;-46
2024/04/17 08:59:50;;;;;;;121.80;110.63;;;;;;;15.69;52.81;98530.13;5416108;26;20000;-46
2024/04/17 09:02:16;;;;;;;56.50;44.28;;;;;;;14.61;56.61;98537.75;5416060;26;20072;-45
2024/04/17 09:04:46;;;;;;;51.35;37.40;;;;;;;12.90;62.06;98538.84;5416165;26;20081;-44
2024/04/17 09:07:12;;;;;;;24.75;14.90;;;;;;;11.80;69.57;98540.91;5416040;26;20004;-44
2024/04/17 09:09:40;;;;;;;170.10;153.13;;;;;;;10.94;73.93;98546.53;5417870;26;20072;-44
2024/04/17 09:12:10;;;;;;;34.90;18.50;;;;;;;10.48;79.94;98544.78;5417916;26;20462;-44
2024/04/17 09:14:36;;;;;;;12.15;4.72;;;;;;;10.00;79.44;98548.38;5417704;26;19999;-43
2024/04/17 09:17:02;;;;;;;12.30;7.18;;;;;;;9.64;83.23;98538.22;5417613;26;19999;-44
2024/04/17 09:19:28;;;;;;;13.60;8.02;;;;;;;9.64;88.63;98539.03;5415919;26;19999;-45
2024/04/17 09:21:54;;;;;;;17.73;14.02;;;;;;;9.94;94.05;98539.50;5417630;26;20372;-46
2024/04/17 09:24:20;;;;;;;15.40;12.07;;;;;;;10.33;97.99;98543.19;5417540;26;20015;-46
2024/04/17 09:26:46;;;;;;;8.23;4.18;;;;;;;11.02;100.00;98546.31;5416009;26;20004;-45
2024/04/17 09:29:15;;;;;;;28.45;23.90;;;;;;;12.73;100.00;98531.50;5417473;26;20014;-45
2024/04/17 09:31:45;;;;;;;13.73;8.32;;;;;;;14.53;100.00;98526.47;5417108;26;20008;-44
2024/04/17 09:34:15;;;;;;;7.05;2.88;;;;;;;16.27;100.00;98520.28;5417189;26;20477;-44
2024/04/17 09:36:50;;;;;;;9.75;7.25;;;;;;;18.28;100.00;98506.44;5417010;26;20003;-44
2024/04/17 09:39:16;;;;;;;3.72;2.33;;;;;;;19.75;100.00;98507.38;5415415;26;20326;-44
2024/04/17 09:41:43;;;;;;;5.25;2.10;;;;;;;19.68;97.98;98500.66;5417130;26;20014;-45
2024/04/17 09:44:12;;;;;;;4.05;1.90;;;;;;;18.94;94.64;98506.06;5417052;26;20047;-45
2024/04/17 09:46:39;;;;;;;10.70;3.08;;;;;;;18.34;97.24;98507.28;5416959;26;20485;-45
2024/04/17 09:49:27;;;;;;;21.42;8.48;;;;;;;17.81;100.00;98493.00;5385693;26;19999;-45
2024/04/17 09:51:59;;;;;;;13.00;3.38;;;;;;;18.22;100.00;98490.72;5416896;26;20011;-45
2024/04/17 09:54:27;;;;;;;12.63;2.85;;;;;;;20.32;97.54;98476.22;5416892;26;20011;-43
2024/04/17 09:56:54;;;;;;;6.93;2.17;;;;;;;22.19;87.77;98464.31;5415064;26;20015;-43
2024/04/17 09:59:21;;;;;;;6.95;1.88;;;;;;;23.12;82.89;98467.63;5415157;26;19999;-43
2024/04/17 10:01:47;;;;;;;9.25;2.15;;;;;;;22.44;83.69;98461.41;5385512;26;20071;-44
2024/04/17 10:04:17;;;;;;;27.95;11.93;;;;;;;21.62;90.07;98466.66;5416778;26;20396;-43
2024/04/17 10:06:44;;;;;;;105.13;52.35;;;;;;;21.01;86.70;98460.56;5415328;26;20004;-43
2024/04/17 10:09:13;;;;;;;123.25;60.55;;;;;;;20.19;87.03;98473.31;5414863;26;20076;-43
2024/04/17 10:11:40;;;;;;;35.70;20.10;;;;;;;19.43;87.84;98470.28;5416493;26;20342;-43
2024/04/17 10:14:10;;;;;;;28.15;17.08;;;;;;;18.51;88.40;98475.22;5414791;26;20407;-43
2024/04/17 10:16:36;;;;;;;52.72;42.13;;;;;;;17.96;88.18;98472.72;5416572;26;20076;-43
2024/04/17 10:19:03;;;;;;;67.57;36.97;;;;;;;18.29;91.52;98468.22;5385290;26;20000;-43
2024/04/17 10:21:36;;;;;;;74.32;35.40;;;;;;;19.47;86.92;98462.59;5416434;26;20003;-43
2024/04/17 10:24:12;;;;;;;50.05;22.33;;;;;;;19.51;84.26;98453.81;5416589;26;20050;-43
2024/04/17 10:26:46;;;;;;;70.85;34.60;;;;;;;19.29;82.94;98455.91;5414673;26;19999;-43
2024/04/17 10:29:22;;;;;;;89.28;47.80;;;;;;;19.11;86.92;98454.50;5416416;26;19999;-43
2024/04/17 10:32:00;;;;;;;43.70;23.63;;;;;;;18.79;87.95;98444.81;5414586;26;20011;-44
2024/04/17 10:34:27;;;;;;;28.17;14.90;;;;;;;18.30;87.80;98445.09;5416341;26;20454;-44
2024/04/17 10:36:54;;;;;;;11.73;5.35;;;;;;;17.65;85.32;98455.72;5416545;26;20051;-43
2024/04/17 10:39:25;;;;;;;16.20;7.68;;;;;;;16.70;76.93;98474.56;5416644;26;20000;-43
2024/04/17 10:41:52;;;;;;;23.73;10.48;;;;;;;16.00;77.09;98489.16;5416551;26;20456;-45
2024/04/17 10:44:21;;;;;;;22.50;7.13;;;;;;;15.45;80.57;98489.75;5416391;26;20014;-45
2024/04/17 10:46:47;;;;;;;12.60;3.40;;;;;;;14.85;84.32;98488.31;5416323;26;20004;-45
2024/04/17 10:49:22;;;;;;;9.55;2.95;;;;;;;14.09;84.69;98491.66;5414578;26;20007;-46
2024/04/17 10:51:47;;;;;;;8.77;1.85;;;;;;;13.42;87.31;98493.66;5416169;26;20000;-46
2024/04/17 10:54:13;;;;;;;9.05;2.47;;;;;;;12.98;88.41;98496.41;5416248;26;20000;-46
2024/04/17 10:56:40;;;;;;;29.25;11.80;;;;;;;12.63;90.03;98504.06;5414539;26;20011;-46
2024/04/17 10:59:06;;;;;;;13.07;3.90;;;;;;;12.68;93.63;98502.41;5414347;26;20003;-46
2024/04/17 11:01:31;;;;;;;15.82;3.42;;;;;;;13.12;96.72;98497.84;5384812;26;20000;-46
2024/04/17 11:03:58;;;;;;;25.02;4.40;;;;;;;14.18;99.12;98498.22;5414308;26;20004;-46
2024/04/17 11:06:24;;;;;;;10.50;2.13;;;;;;;15.55;96.84;98493.41;5415948;26;19999;-46
2024/04/17 11:08:52;;;;;;;20.80;2.83;;;;;;;17.01;93.66;98482.13;5416005;26;21227;-46
2024/04/17 11:11:18;;;;;;;16.80;6.55;;;;;;;18.08;89.78;98493.81;5414126;26;20000;-47
2024/04/17 11:13:44;;;;;;;27.13;14.05;;;;;;;18.39;81.01;98485.25;5416093;26;20442;-47
2024/04/17 11:16:10;;;;;;;13.00;2.90;;;;;;;18.20;77.84;98487.53;5415965;26;20000;-47
2024/04/17 11:18:37;;;;;;;14.50;2.83;;;;;;;17.37;75.61;98489.41;5417593;26;20011;-46
2024/04/17 11:21:03;;;;;;;13.57;2.53;;;;;;;16.30;73.19;98498.63;5417548;26;20000;-46
2024/04/17 11:23:38;;;;;;;15.90;2.67;;;;;;;15.36;76.89;98508.66;5419357;26;20000;-45